Terminal Aerodrome Forecast
Issued by NWS

Home | Current Version | Previous Version | Text Only | Print | Product List | Glossary Off
Versions: 1 2 3 4 5 6 7 8 9 10 11 12 13 14 15 16 17 18 19

000
FTUS43 KOAX 202329
TAFCDR
TAF
KCDR 202329Z 2100/2124 VRB05KT P6SM BKN035
     FM210300 20005KT P6SM SCT050
     FM211600 17012KT P6SM BKN040=

USA.gov is the U.S. government's official web portal to all federal, state and local government web resources and services.